createdAt,value
2022-09-16T00:00:55.805Z,13.99
2022-09-16T00:01:55.745Z,13.99
2022-09-16T00:02:55.662Z,13.96
2022-09-16T00:03:55.618Z,13.98
2022-09-16T00:04:55.595Z,13.96
2022-09-16T00:05:55.538Z,13.94
2022-09-16T00:06:55.505Z,13.94
2022-09-16T00:07:55.461Z,13.91
2022-09-16T00:08:55.422Z,13.94
2022-09-16T00:09:55.397Z,13.93
2022-09-16T00:10:55.346Z,13.94
2022-09-16T00:11:55.307Z,13.90
2022-09-16T00:12:55.265Z,13.87
2022-09-16T00:13:55.285Z,13.81
2022-09-16T00:14:55.188Z,13.86
2022-09-16T00:15:55.187Z,13.83
2022-09-16T00:16:55.119Z,13.86
2022-09-16T00:17:55.068Z,13.84
2022-09-16T00:18:55.033Z,13.80
2022-09-16T00:19:54.990Z,13.83
2022-09-16T00:20:54.996Z,13.79
2022-09-16T00:21:54.937Z,13.73
2022-09-16T00:22:54.876Z,13.75
2022-09-16T00:23:54.966Z,13.76
2022-09-16T00:24:54.803Z,13.66
2022-09-16T00:25:55.423Z,13.63
2022-09-16T00:26:54.732Z,13.73
2022-09-16T00:27:54.684Z,13.80
2022-09-16T00:28:54.649Z,13.65
2022-09-16T00:29:54.615Z,13.66
2022-09-16T00:30:54.571Z,13.72
2022-09-16T00:31:54.578Z,13.73
2022-09-16T00:32:54.505Z,13.79
2022-09-16T00:33:54.482Z,13.71
2022-09-16T00:34:54.429Z,13.73
2022-09-16T00:35:54.365Z,13.76
2022-09-16T00:36:54.325Z,13.71
2022-09-16T00:37:54.295Z,13.76
2022-09-16T00:38:54.348Z,13.76
2022-09-16T00:39:54.329Z,13.83
2022-09-16T00:40:54.172Z,13.86
2022-09-16T00:41:54.131Z,13.76
2022-09-16T00:42:54.096Z,13.83
2022-09-16T00:43:54.057Z,13.84
2022-09-16T00:44:54.017Z,13.72
2022-09-16T00:45:53.982Z,13.84
2022-09-16T00:46:53.992Z,13.80
2022-09-16T00:47:53.895Z,13.80
2022-09-16T00:48:53.859Z,13.76
2022-09-16T00:49:53.817Z,13.75
2022-09-16T00:50:53.789Z,13.75
2022-09-16T00:51:53.739Z,13.72
2022-09-16T00:52:53.700Z,13.69
2022-09-16T00:53:53.780Z,13.62
2022-09-16T00:54:53.623Z,13.57
2022-09-16T00:55:53.598Z,13.65
2022-09-16T00:56:53.544Z,13.55
2022-09-16T00:57:53.517Z,13.47
2022-09-16T00:58:53.468Z,13.48
2022-09-16T00:59:53.426Z,13.41
2022-09-16T01:00:53.467Z,13.47
2022-09-16T01:01:53.393Z,13.38
2022-09-16T01:02:53.316Z,13.47
2022-09-16T01:03:53.282Z,13.39
2022-09-16T01:04:53.239Z,13.35
2022-09-16T01:05:53.189Z,13.19
2022-09-16T01:06:53.158Z,13.31
2022-09-16T01:07:53.113Z,13.32
2022-09-16T01:08:53.198Z,13.24
2022-09-16T01:09:53.050Z,13.22
2022-09-16T01:10:53.000Z,13.31
2022-09-16T01:11:52.954Z,13.25
2022-09-16T01:12:52.914Z,13.24
2022-09-16T01:13:52.873Z,13.22
2022-09-16T01:14:52.837Z,13.17
2022-09-16T01:15:52.873Z,13.31
2022-09-16T01:16:52.758Z,13.28
2022-09-16T01:17:52.716Z,13.21
2022-09-16T01:18:52.680Z,13.24
2022-09-16T01:19:52.638Z,13.32
2022-09-16T01:20:52.598Z,13.28
2022-09-16T01:21:52.572Z,13.25
2022-09-16T01:22:52.521Z,13.35
2022-09-16T01:23:52.528Z,13.21
2022-09-16T01:24:52.453Z,13.29
2022-09-16T01:25:52.469Z,13.32
2022-09-16T01:26:52.363Z,13.21
2022-09-16T01:27:52.335Z,13.31
2022-09-16T01:28:52.297Z,13.36
2022-09-16T01:29:52.248Z,13.35
2022-09-16T01:30:52.205Z,13.35
2022-09-16T01:31:52.165Z,13.35
2022-09-16T01:32:52.126Z,13.28
2022-09-16T01:33:52.085Z,13.24
2022-09-16T01:34:52.064Z,13.32
2022-09-16T01:35:52.007Z,13.39
2022-09-16T01:36:51.969Z,13.32
2022-09-16T01:37:51.927Z,13.38
2022-09-16T01:38:51.890Z,13.46
2022-09-16T01:39:51.872Z,13.48
2022-09-16T01:40:51.823Z,13.43
2022-09-16T01:41:51.770Z,13.41
2022-09-16T01:42:51.729Z,13.46
2022-09-16T01:43:51.697Z,13.41
2022-09-16T01:44:51.653Z,13.44
2022-09-16T01:45:51.612Z,13.43
2022-09-16T01:46:51.624Z,13.39
2022-09-16T01:47:51.535Z,13.47
2022-09-16T01:48:53.723Z,13.39
2022-09-16T01:49:51.454Z,13.38
2022-09-16T01:50:51.417Z,13.41
2022-09-16T01:51:51.386Z,13.39
2022-09-16T01:52:51.349Z,13.44
2022-09-16T01:53:51.298Z,13.43
2022-09-16T01:54:51.259Z,13.39
2022-09-16T01:55:51.233Z,13.43
2022-09-16T01:56:51.187Z,13.32
2022-09-16T01:57:51.156Z,13.41
2022-09-16T01:58:51.100Z,13.51
2022-09-16T01:59:51.062Z,13.48
2022-09-16T02:00:51.023Z,13.39
2022-09-16T02:01:51.093Z,13.50
2022-09-16T02:02:58.090Z,13.43
2022-09-16T02:03:50.903Z,13.44
2022-09-16T02:04:50.865Z,13.44
2022-09-16T02:05:50.821Z,13.44
2022-09-16T02:06:50.786Z,13.38
2022-09-16T02:07:50.746Z,13.50
2022-09-16T02:08:50.719Z,13.48
2022-09-16T02:09:50.666Z,13.44
2022-09-16T02:10:50.641Z,13.48
2022-09-16T02:11:50.592Z,13.47
2022-09-16T02:12:50.550Z,13.43
2022-09-16T02:13:50.507Z,13.46
2022-09-16T02:14:50.483Z,13.41
2022-09-16T02:15:50.510Z,13.53
2022-09-16T02:16:50.390Z,13.44
2022-09-16T02:17:50.349Z,13.48
2022-09-16T02:18:50.316Z,13.44
2022-09-16T02:19:50.271Z,13.50
2022-09-16T02:20:50.247Z,13.48
2022-09-16T02:21:50.194Z,13.41
2022-09-16T02:22:50.153Z,13.46
2022-09-16T02:23:50.114Z,13.47
2022-09-16T02:24:50.075Z,13.50
2022-09-16T02:25:50.035Z,13.43
2022-09-16T02:26:50.007Z,13.39
2022-09-16T02:27:49.956Z,13.36
2022-09-16T02:28:49.918Z,13.51
2022-09-16T02:29:49.877Z,13.43
2022-09-16T02:30:49.884Z,13.44
2022-09-16T02:31:53.605Z,13.50
2022-09-16T02:32:49.773Z,13.50
2022-09-16T02:33:49.718Z,13.38
2022-09-16T02:34:49.680Z,13.35
2022-09-16T02:35:49.651Z,13.39
2022-09-16T02:36:49.601Z,13.47
2022-09-16T02:37:49.563Z,13.38
2022-09-16T02:38:49.525Z,13.48
2022-09-16T02:39:49.552Z,13.48
2022-09-16T02:40:49.447Z,13.51
2022-09-16T02:41:49.417Z,13.51
2022-09-16T02:42:49.370Z,13.61
2022-09-16T02:43:49.335Z,13.51
2022-09-16T02:44:49.287Z,13.48
2022-09-16T02:45:49.258Z,13.46
2022-09-16T02:46:49.239Z,13.51
2022-09-16T02:47:49.169Z,13.38
2022-09-16T02:48:49.145Z,13.39
2022-09-16T02:49:49.090Z,13.53
2022-09-16T02:50:49.054Z,13.53
2022-09-16T02:51:49.013Z,13.54
2022-09-16T02:52:48.987Z,13.43
2022-09-16T02:53:48.933Z,13.46
2022-09-16T02:54:48.894Z,13.47
2022-09-16T02:55:48.858Z,13.46
2022-09-16T02:56:48.814Z,13.53
2022-09-16T02:57:48.776Z,13.44
2022-09-16T02:58:48.749Z,13.51
2022-09-16T02:59:48.698Z,13.43
2022-09-16T03:00:48.665Z,13.48
2022-09-16T03:01:48.653Z,13.50
2022-09-16T03:02:48.663Z,13.46
2022-09-16T03:03:48.542Z,13.48
2022-09-16T03:04:48.513Z,13.48
2022-09-16T03:05:48.460Z,13.51
2022-09-16T03:06:48.426Z,13.44
2022-09-16T03:07:48.385Z,13.51
2022-09-16T03:08:48.347Z,13.50
2022-09-16T03:09:48.303Z,13.53
2022-09-16T03:10:48.277Z,13.54
2022-09-16T03:11:48.224Z,13.54
2022-09-16T03:12:48.189Z,13.43
2022-09-16T03:13:48.148Z,13.46
2022-09-16T03:14:48.108Z,13.48
2022-09-16T03:15:48.182Z,13.44
2022-09-16T03:16:48.040Z,13.38
2022-09-16T03:17:47.989Z,13.48
2022-09-16T03:18:47.950Z,13.41
2022-09-16T03:19:47.914Z,13.35
2022-09-16T03:20:47.873Z,13.35
2022-09-16T03:21:47.832Z,13.36
2022-09-16T03:22:48.095Z,13.36
2022-09-16T03:23:47.755Z,13.28
2022-09-16T03:24:47.714Z,13.28
2022-09-16T03:25:47.674Z,13.32
2022-09-16T03:26:47.637Z,13.28
2022-09-16T03:27:47.607Z,13.32
2022-09-16T03:28:47.569Z,13.31
2022-09-16T03:29:47.517Z,13.24
2022-09-16T03:30:47.505Z,13.32
2022-09-16T03:31:47.438Z,13.22
2022-09-16T03:32:47.442Z,13.22
2022-09-16T03:33:47.373Z,13.22
2022-09-16T03:34:47.321Z,13.28
2022-09-16T03:35:47.281Z,13.21
2022-09-16T03:36:47.241Z,13.35
2022-09-16T03:37:47.203Z,13.24
2022-09-16T03:38:47.234Z,13.22
2022-09-16T03:39:47.139Z,13.24
2022-09-16T03:40:47.085Z,13.25
2022-09-16T03:41:47.044Z,13.24
2022-09-16T03:42:47.007Z,13.28
2022-09-16T03:43:46.967Z,13.19
2022-09-16T03:44:46.942Z,13.22
2022-09-16T03:45:46.890Z,13.24
2022-09-16T03:46:46.854Z,13.24
2022-09-16T03:47:46.810Z,13.25
2022-09-16T03:48:46.769Z,13.24
2022-09-16T03:49:46.732Z,13.25
2022-09-16T03:50:46.715Z,13.24
2022-09-16T03:51:46.652Z,13.21
2022-09-16T03:52:46.612Z,13.22
2022-09-16T03:53:46.569Z,13.21
2022-09-16T03:54:46.541Z,13.16
2022-09-16T03:55:46.506Z,13.21
2022-09-16T03:56:46.454Z,13.16
2022-09-16T03:57:46.413Z,13.17
2022-09-16T03:58:46.381Z,13.09
2022-09-16T03:59:46.336Z,13.06
2022-09-16T04:00:46.298Z,13.07
2022-09-16T04:01:46.320Z,13.09
2022-09-16T04:02:46.269Z,13.04
2022-09-16T04:03:46.179Z,13.09
2022-09-16T04:04:46.141Z,13.03
2022-09-16T04:05:46.098Z,13.03
2022-09-16T04:06:46.059Z,12.92
2022-09-16T04:07:46.032Z,12.92
2022-09-16T04:08:45.986Z,12.96
2022-09-16T04:09:45.943Z,12.81
2022-09-16T04:10:45.903Z,12.95
2022-09-16T04:11:45.860Z,12.87
2022-09-16T04:12:45.834Z,12.99
2022-09-16T04:13:45.781Z,12.91
2022-09-16T04:14:45.748Z,12.96
2022-09-16T04:15:45.722Z,12.77
2022-09-16T04:16:45.663Z,12.79
2022-09-16T04:17:45.623Z,12.77
2022-09-16T04:18:45.600Z,12.77
2022-09-16T04:19:45.546Z,12.70
2022-09-16T04:20:45.503Z,12.67
2022-09-16T04:21:45.465Z,12.52
2022-09-16T04:22:45.427Z,12.55
2022-09-16T04:23:45.385Z,12.51
2022-09-16T04:24:45.358Z,12.52
2022-09-16T04:25:45.305Z,12.43
2022-09-16T04:26:45.277Z,12.52
2022-09-16T04:27:45.226Z,12.48
2022-09-16T04:28:45.188Z,12.55
2022-09-16T04:29:45.149Z,12.55
2022-09-16T04:30:45.157Z,12.55
2022-09-16T04:31:45.072Z,12.44
2022-09-16T04:32:45.030Z,12.54
2022-09-16T04:33:44.993Z,12.55
2022-09-16T04:34:44.949Z,12.59
2022-09-16T04:35:44.926Z,12.55
2022-09-16T04:36:44.882Z,12.58
2022-09-16T04:37:44.831Z,12.67
2022-09-16T04:38:44.854Z,12.76
2022-09-16T04:39:44.749Z,12.85
2022-09-16T04:40:44.710Z,12.69
2022-09-16T04:41:44.673Z,12.77
2022-09-16T04:42:44.642Z,12.74
2022-09-16T04:43:44.596Z,12.88
2022-09-16T04:44:44.552Z,12.91
2022-09-16T04:45:44.511Z,12.92
2022-09-16T04:46:44.489Z,12.99
2022-09-16T04:47:44.432Z,12.96
2022-09-16T04:48:44.406Z,13.01
2022-09-16T04:49:44.353Z,13.01
2022-09-16T04:50:44.325Z,12.98
2022-09-16T04:51:44.306Z,12.91
2022-09-16T04:52:44.250Z,12.89
2022-09-16T04:53:44.216Z,12.85
2022-09-16T04:54:44.163Z,12.74
2022-09-16T04:55:44.112Z,12.59
2022-09-16T04:56:44.076Z,12.69
2022-09-16T04:57:44.035Z,12.58
2022-09-16T04:58:43.997Z,12.67
2022-09-16T04:59:43.959Z,12.56
2022-09-16T05:00:43.943Z,12.61
2022-09-16T05:01:43.967Z,12.67
2022-09-16T05:02:43.846Z,12.61
2022-09-16T05:03:43.819Z,12.76
2022-09-16T05:04:43.777Z,12.76
2022-09-16T05:05:43.751Z,12.79
2022-09-16T05:06:43.682Z,12.70
2022-09-16T05:07:43.641Z,12.66
2022-09-16T05:08:43.608Z,12.63
2022-09-16T05:09:43.559Z,12.66
2022-09-16T05:10:43.536Z,12.62
2022-09-16T05:11:43.516Z,12.61
2022-09-16T05:12:47.904Z,12.55
2022-09-16T05:13:43.408Z,12.49
2022-09-16T05:14:43.358Z,12.49
2022-09-16T05:15:46.420Z,12.46
2022-09-16T05:16:43.289Z,12.56
2022-09-16T05:17:51.709Z,12.61
2022-09-16T05:18:43.210Z,12.59
2022-09-16T05:19:43.161Z,12.61
2022-09-16T05:20:43.119Z,12.59
2022-09-16T05:21:43.081Z,12.69
2022-09-16T05:22:43.052Z,12.66
2022-09-16T05:23:46.688Z,12.69
2022-09-16T05:24:42.956Z,12.73
2022-09-16T05:25:42.919Z,12.74
2022-09-16T05:26:42.900Z,12.62
2022-09-16T05:27:42.845Z,12.66
2022-09-16T05:28:42.883Z,12.62
2022-09-16T05:29:42.758Z,12.61
2022-09-16T05:30:42.758Z,12.67
2022-09-16T05:31:42.684Z,12.62
2022-09-16T05:32:42.654Z,12.62
2022-09-16T05:33:42.603Z,12.70
2022-09-16T05:34:42.559Z,12.63
2022-09-16T05:35:42.525Z,12.59
2022-09-16T05:36:42.482Z,12.49
2022-09-16T05:37:42.449Z,12.51
2022-09-16T05:38:54.367Z,12.55
2022-09-16T05:39:42.361Z,12.54
2022-09-16T05:40:42.322Z,12.69
2022-09-16T05:41:42.297Z,12.70
2022-09-16T05:42:42.254Z,12.79
2022-09-16T05:43:42.201Z,12.73
2022-09-16T05:44:42.241Z,12.85
2022-09-16T05:45:42.146Z,12.85
2022-09-16T05:46:42.096Z,12.74
2022-09-16T05:47:42.059Z,12.80
2022-09-16T05:48:42.006Z,12.71
2022-09-16T05:49:41.967Z,12.66
2022-09-16T05:50:41.938Z,12.67
2022-09-16T05:51:41.884Z,12.69
2022-09-16T05:52:41.846Z,12.59
2022-09-16T05:53:41.819Z,12.67
2022-09-16T05:54:41.782Z,12.77
2022-09-16T05:55:41.729Z,12.70
2022-09-16T05:56:41.687Z,12.79
2022-09-16T05:57:41.645Z,12.81
2022-09-16T05:58:41.610Z,12.71
2022-09-16T05:59:41.568Z,12.88
2022-09-16T06:00:41.624Z,12.77
2022-09-16T06:01:41.557Z,12.74
2022-09-16T06:02:41.484Z,12.85
2022-09-16T06:03:41.407Z,12.77
2022-09-16T06:04:41.370Z,12.87
2022-09-16T06:05:45.556Z,12.92
2022-09-16T06:06:41.312Z,12.94
2022-09-16T06:07:41.250Z,12.91
2022-09-16T06:08:41.213Z,12.98
2022-09-16T06:09:41.187Z,13.04
2022-09-16T06:10:41.144Z,12.81
2022-09-16T06:11:41.092Z,12.89
2022-09-16T06:12:41.065Z,12.98
2022-09-16T06:13:41.009Z,12.94
2022-09-16T06:14:40.972Z,13.03
2022-09-16T06:15:41.005Z,12.89
2022-09-16T06:16:40.992Z,12.88
2022-09-16T06:17:40.860Z,12.98
2022-09-16T06:18:40.815Z,13.07
2022-09-16T06:19:40.776Z,13.04
2022-09-16T06:20:40.737Z,13.19
2022-09-16T06:21:40.695Z,13.21
2022-09-16T06:22:40.681Z,13.38
2022-09-16T06:23:40.617Z,13.35
2022-09-16T06:24:40.577Z,13.44
2022-09-16T06:25:40.556Z,13.62
2022-09-16T06:26:40.498Z,13.62
2022-09-16T06:27:40.460Z,13.61
2022-09-16T06:28:40.432Z,13.62
2022-09-16T06:29:40.383Z,13.62
2022-09-16T06:30:40.365Z,13.59
2022-09-16T06:31:40.305Z,13.75
2022-09-16T06:32:40.339Z,13.81
2022-09-16T06:33:40.225Z,13.73
2022-09-16T06:34:40.201Z,13.66
2022-09-16T06:35:40.148Z,13.75
2022-09-16T06:36:44.767Z,13.59
2022-09-16T06:37:40.071Z,13.66
2022-09-16T06:38:40.030Z,13.66
2022-09-16T06:39:40.021Z,13.75
2022-09-16T06:40:39.953Z,13.88
2022-09-16T06:41:39.919Z,13.90
2022-09-16T06:42:39.874Z,13.73
2022-09-16T06:43:39.836Z,13.91
2022-09-16T06:44:39.804Z,13.99
2022-09-16T06:45:39.824Z,14.08
2022-09-16T06:46:39.718Z,14.04
2022-09-16T06:47:39.688Z,14.23
2022-09-16T06:48:39.719Z,14.11
2022-09-16T06:49:39.614Z,14.04
2022-09-16T06:50:39.563Z,14.05
2022-09-16T06:51:39.535Z,14.01
2022-09-16T06:52:39.485Z,14.01
2022-09-16T06:53:39.451Z,14.01
2022-09-16T06:54:39.407Z,14.05
2022-09-16T06:55:39.370Z,14.06
2022-09-16T06:56:39.423Z,13.99
2022-09-16T06:57:39.291Z,14.17
2022-09-16T06:58:39.253Z,14.13
2022-09-16T06:59:39.216Z,14.17
2022-09-16T07:00:39.177Z,14.11
2022-09-16T07:01:39.210Z,14.12
2022-09-16T07:02:39.173Z,14.13
2022-09-16T07:03:39.064Z,14.06
2022-09-16T07:04:39.100Z,14.16
2022-09-16T07:05:38.992Z,14.04
2022-09-16T07:07:07.732Z,14.16
2022-09-16T07:07:38.909Z,14.17
2022-09-16T07:08:38.889Z,14.34
2022-09-16T07:09:38.828Z,14.41
2022-09-16T07:10:38.793Z,14.60
2022-09-16T07:11:38.761Z,14.52
2022-09-16T07:12:38.718Z,14.52
2022-09-16T07:13:38.680Z,14.49
2022-09-16T07:14:38.650Z,14.61
2022-09-16T07:15:56.331Z,14.69
2022-09-16T07:16:38.583Z,14.71
2022-09-16T07:17:38.529Z,14.67
2022-09-16T07:18:38.483Z,14.75
2022-09-16T07:19:38.446Z,14.67
2022-09-16T07:20:38.496Z,14.56
2022-09-16T07:21:38.369Z,14.64
2022-09-16T07:22:38.342Z,14.66
2022-09-16T07:23:38.293Z,14.56
2022-09-16T07:24:38.257Z,14.61
2022-09-16T07:25:38.216Z,14.69
2022-09-16T07:26:38.193Z,14.69
2022-09-16T07:27:38.141Z,14.72
2022-09-16T07:28:38.113Z,14.79
2022-09-16T07:29:38.064Z,15.00
2022-09-16T07:30:38.068Z,15.04
2022-09-16T07:31:37.996Z,14.97
2022-09-16T07:32:37.949Z,14.97
2022-09-16T07:33:37.921Z,15.04
2022-09-16T07:34:37.886Z,15.09
2022-09-16T07:35:37.836Z,15.30
2022-09-16T07:36:37.879Z,15.31
2022-09-16T07:37:42.445Z,15.64
2022-09-16T07:38:37.730Z,15.84
2022-09-16T07:39:37.685Z,15.66
2022-09-16T07:40:37.669Z,15.76
2022-09-16T07:41:37.608Z,15.81
2022-09-16T07:42:37.576Z,15.74
2022-09-16T07:43:37.533Z,15.92
2022-09-16T07:44:37.495Z,16.50
2022-09-16T07:45:37.508Z,17.24
2022-09-16T07:46:37.432Z,17.60
2022-09-16T07:47:37.387Z,18.05
2022-09-16T07:48:37.346Z,18.42
2022-09-16T07:49:37.309Z,18.76
2022-09-16T07:50:37.276Z,19.05
2022-09-16T07:51:37.236Z,19.39
2022-09-16T07:52:37.328Z,19.85
2022-09-16T07:53:37.167Z,20.30
2022-09-16T07:54:37.220Z,20.53
2022-09-16T07:55:37.094Z,20.85
2022-09-16T07:56:37.054Z,20.48
2022-09-16T07:57:37.022Z,20.73
2022-09-16T07:58:37.005Z,20.68
2022-09-16T07:59:36.960Z,20.42
2022-09-16T08:00:36.914Z,20.20
2022-09-16T08:01:41.342Z,20.19
2022-09-16T08:02:36.865Z,20.57
2022-09-16T08:03:46.708Z,20.42
2022-09-16T08:04:36.851Z,19.71
2022-09-16T08:05:36.743Z,19.64
2022-09-16T08:06:36.721Z,20.01
2022-09-16T08:07:36.675Z,20.27
2022-09-16T08:08:36.720Z,19.98
2022-09-16T08:09:42.143Z,20.05
2022-09-16T08:10:36.576Z,19.76
2022-09-16T08:11:36.552Z,19.40
2022-09-16T08:12:36.503Z,19.61
2022-09-16T08:13:36.470Z,19.30
2022-09-16T08:14:36.537Z,19.78
2022-09-16T08:15:36.405Z,20.66
2022-09-16T08:16:36.451Z,20.88
2022-09-16T08:17:36.353Z,20.16
2022-09-16T08:18:36.300Z,19.49
2022-09-16T08:19:36.267Z,19.01
2022-09-16T08:20:36.232Z,18.82
2022-09-16T08:21:36.202Z,19.17
2022-09-16T08:22:36.171Z,19.25
2022-09-16T08:23:36.143Z,18.76
2022-09-16T08:24:36.216Z,18.51
2022-09-16T08:25:36.064Z,18.32
2022-09-16T08:26:36.032Z,18.42
2022-09-16T08:27:35.997Z,18.59
2022-09-16T08:28:45.489Z,18.65
2022-09-16T08:29:35.941Z,19.01
2022-09-16T08:30:35.893Z,19.25
2022-09-16T08:31:35.890Z,19.72
2022-09-16T08:32:35.824Z,19.83
2022-09-16T08:33:35.791Z,19.90
2022-09-16T08:34:35.815Z,20.04
2022-09-16T08:35:35.737Z,20.13
2022-09-16T08:36:35.692Z,20.57
2022-09-16T08:37:35.656Z,20.07
2022-09-16T08:38:35.620Z,19.57
2022-09-16T08:39:35.592Z,19.38
2022-09-16T08:40:35.629Z,19.32
2022-09-16T08:41:35.537Z,19.15
2022-09-16T08:42:35.483Z,19.12
2022-09-16T08:43:35.451Z,18.65
2022-09-16T08:44:35.416Z,18.13
2022-09-16T08:45:35.419Z,18.05
2022-09-16T08:46:35.348Z,18.04
2022-09-16T08:47:35.354Z,18.28
2022-09-16T08:48:35.281Z,18.31
2022-09-16T08:49:35.247Z,18.64
2022-09-16T08:50:35.214Z,18.51
2022-09-16T08:51:35.179Z,18.46
2022-09-16T08:52:35.143Z,18.35
2022-09-16T08:53:35.121Z,18.49
2022-09-16T08:54:35.080Z,18.71
2022-09-16T08:55:35.040Z,18.65
2022-09-16T08:56:35.091Z,18.51
2022-09-16T08:57:34.972Z,19.10
2022-09-16T08:58:34.937Z,19.52
2022-09-16T08:59:34.917Z,19.83
2022-09-16T09:00:34.867Z,20.53
2022-09-16T09:01:35.095Z,20.98
2022-09-16T09:02:35.045Z,20.82
2022-09-16T09:03:34.825Z,20.78
2022-09-16T09:04:34.729Z,20.51
2022-09-16T09:05:34.710Z,20.58
2022-09-16T09:06:34.666Z,21.05
2022-09-16T09:07:34.630Z,20.60
2022-09-16T09:08:34.595Z,20.41
2022-09-16T09:09:34.564Z,20.53
2022-09-16T09:10:34.541Z,20.78
2022-09-16T09:11:35.122Z,20.34
2022-09-16T09:12:35.703Z,20.33
2022-09-16T09:13:34.430Z,19.67
2022-09-16T09:14:34.398Z,19.49
2022-09-16T09:15:34.366Z,19.43
2022-09-16T09:16:34.425Z,19.52
2022-09-16T09:17:37.168Z,19.68
2022-09-16T09:18:34.260Z,19.83
2022-09-16T09:19:34.229Z,20.38
2022-09-16T09:20:34.196Z,20.91
2022-09-16T09:21:34.162Z,21.42
2022-09-16T09:22:34.141Z,20.71
2022-09-16T09:23:34.102Z,19.67
2022-09-16T09:24:34.059Z,18.97
2022-09-16T09:25:34.027Z,18.96
2022-09-16T09:26:33.993Z,19.02
2022-09-16T09:27:33.961Z,19.13
2022-09-16T09:28:34.027Z,19.28
2022-09-16T09:29:33.896Z,20.04
2022-09-16T09:30:33.859Z,20.10
2022-09-16T09:31:33.876Z,20.42
2022-09-16T09:32:46.341Z,19.85
2022-09-16T09:33:46.073Z,20.26
2022-09-16T09:34:35.932Z,20.78
2022-09-16T09:35:33.694Z,21.45
2022-09-16T09:36:33.656Z,21.96
2022-09-16T09:37:33.628Z,21.90
2022-09-16T09:38:33.593Z,21.83
2022-09-16T09:39:33.573Z,21.68
2022-09-16T09:40:33.584Z,21.79
2022-09-16T09:41:33.494Z,21.68
2022-09-16T09:42:33.459Z,21.75
2022-09-16T09:43:33.478Z,22.05
2022-09-16T09:44:33.510Z,21.99
2022-09-16T09:45:33.379Z,22.14
2022-09-16T09:46:33.450Z,21.34
2022-09-16T09:47:33.301Z,21.00
2022-09-16T09:48:33.262Z,20.48
2022-09-16T09:49:34.177Z,20.60
2022-09-16T09:50:33.209Z,21.01
2022-09-16T09:51:33.166Z,21.22
2022-09-16T09:52:33.130Z,21.75
2022-09-16T09:53:33.101Z,22.39
2022-09-16T09:54:33.123Z,22.44
2022-09-16T09:55:33.054Z,22.01
2022-09-16T09:56:33.001Z,21.37
2022-09-16T09:57:32.973Z,21.33
2022-09-16T09:58:32.936Z,21.01
2022-09-16T09:59:32.906Z,20.37
2022-09-16T10:00:33.034Z,19.89
2022-09-16T10:01:32.848Z,20.02
2022-09-16T10:02:32.806Z,19.97
2022-09-16T10:03:32.782Z,19.79
2022-09-16T10:04:32.749Z,19.87
2022-09-16T10:05:32.711Z,19.57
2022-09-16T10:06:32.687Z,19.46
2022-09-16T10:07:32.643Z,19.30
2022-09-16T10:08:32.652Z,19.06
2022-09-16T10:09:32.574Z,19.06
2022-09-16T10:10:32.551Z,18.91
2022-09-16T10:11:32.517Z,18.78
2022-09-16T10:12:32.471Z,18.72
2022-09-16T10:13:32.447Z,18.68
2022-09-16T10:14:32.407Z,19.28
2022-09-16T10:15:32.370Z,19.65
2022-09-16T10:16:32.558Z,19.70
2022-09-16T10:17:32.336Z,19.32
2022-09-16T10:18:32.268Z,19.10
2022-09-16T10:19:32.234Z,18.99
2022-09-16T10:20:32.200Z,18.86
2022-09-16T10:21:32.166Z,18.86
2022-09-16T10:22:32.136Z,18.47
2022-09-16T10:23:32.162Z,18.62
2022-09-16T10:24:32.062Z,18.32
2022-09-16T10:25:32.031Z,18.13
2022-09-16T10:26:31.991Z,17.89
2022-09-16T10:27:31.958Z,17.94
2022-09-16T10:28:31.925Z,17.98
2022-09-16T10:29:31.904Z,18.09
2022-09-16T10:30:31.855Z,18.50
2022-09-16T10:31:34.322Z,18.34
2022-09-16T10:32:31.870Z,18.60
2022-09-16T10:33:31.753Z,18.75
2022-09-16T10:34:31.725Z,19.02
2022-09-16T10:35:31.681Z,19.28
2022-09-16T10:36:31.647Z,19.49
2022-09-16T10:37:31.611Z,19.46
2022-09-16T10:38:31.575Z,19.47
2022-09-16T10:39:31.556Z,19.35
2022-09-16T10:40:31.586Z,18.82
2022-09-16T10:41:31.472Z,18.57
2022-09-16T10:42:31.438Z,18.36
2022-09-16T10:43:31.403Z,18.25
2022-09-16T10:44:31.398Z,17.94
2022-09-16T10:45:32.203Z,17.77
2022-09-16T10:46:31.474Z,17.60
2022-09-16T10:47:31.298Z,17.32
2022-09-16T10:48:31.317Z,17.28
2022-09-16T10:49:31.192Z,17.21
2022-09-16T10:50:31.172Z,16.98
2022-09-16T10:51:31.120Z,17.15
2022-09-16T10:52:31.098Z,17.10
2022-09-16T10:53:31.068Z,17.15
2022-09-16T10:54:31.032Z,17.18
2022-09-16T10:55:30.990Z,17.54
2022-09-16T10:56:30.943Z,18.14
2022-09-16T10:57:30.912Z,18.64
2022-09-16T10:58:30.943Z,19.23
2022-09-16T10:59:30.838Z,19.45
2022-09-16T11:00:30.826Z,19.68
2022-09-16T11:01:31.674Z,19.70
2022-09-16T11:02:30.734Z,19.75
2022-09-16T11:03:30.722Z,19.57
2022-09-16T11:04:30.762Z,19.28
2022-09-16T11:05:30.629Z,19.05
2022-09-16T11:06:30.610Z,18.76
2022-09-16T11:07:30.561Z,18.72
2022-09-16T11:08:30.535Z,18.62
2022-09-16T11:09:30.498Z,18.32
2022-09-16T11:10:30.461Z,18.23
2022-09-16T11:12:30.391Z,17.99
2022-09-16T11:13:30.367Z,17.81
2022-09-16T11:14:30.322Z,17.66
2022-09-16T11:15:30.287Z,17.58
2022-09-16T11:16:30.293Z,17.38
2022-09-16T11:17:30.215Z,17.43
2022-09-16T11:18:30.193Z,17.51
2022-09-16T11:19:30.150Z,17.60
2022-09-16T11:20:30.211Z,17.62
2022-09-16T11:21:30.074Z,17.60
2022-09-16T11:22:30.041Z,18.26
2022-09-16T11:23:30.005Z,18.53
2022-09-16T11:24:30.005Z,18.62
2022-09-16T11:25:29.934Z,18.72
2022-09-16T11:26:29.902Z,18.82
2022-09-16T11:27:29.874Z,18.87
2022-09-16T11:28:29.832Z,18.94
2022-09-16T11:29:29.796Z,18.84
2022-09-16T11:30:29.773Z,18.89
2022-09-16T11:31:29.793Z,18.87
2022-09-16T11:32:29.691Z,18.97
2022-09-16T11:33:29.658Z,18.99
2022-09-16T11:34:29.633Z,18.74
2022-09-16T11:35:29.587Z,18.84
2022-09-16T11:36:29.643Z,18.72
2022-09-16T11:37:29.531Z,18.79
2022-09-16T11:38:29.483Z,18.56
2022-09-16T11:39:29.448Z,18.56
2022-09-16T11:40:29.463Z,18.56
2022-09-16T11:41:29.378Z,18.69
2022-09-16T11:42:29.344Z,18.69
2022-09-16T11:43:29.319Z,18.82
2022-09-16T11:44:29.274Z,18.94
2022-09-16T11:45:29.239Z,18.65
2022-09-16T11:46:29.254Z,18.41
2022-09-16T11:47:29.170Z,18.50
2022-09-16T11:48:29.150Z,18.36
2022-09-16T11:49:29.108Z,18.16
2022-09-16T11:50:29.067Z,18.20
2022-09-16T11:51:29.032Z,17.94
2022-09-16T11:52:29.388Z,17.87
2022-09-16T11:53:31.892Z,17.62
2022-09-16T11:54:28.938Z,17.30
2022-09-16T11:55:28.890Z,17.33
2022-09-16T11:56:28.870Z,17.09
2022-09-16T11:57:28.818Z,16.98
2022-09-16T11:58:28.786Z,16.87
2022-09-16T11:59:28.751Z,16.78
2022-09-16T12:00:28.725Z,16.66
2022-09-16T12:01:28.676Z,16.52
2022-09-16T12:02:28.749Z,16.40
2022-09-16T12:03:28.712Z,16.37
2022-09-16T12:04:28.570Z,16.40
2022-09-16T12:05:28.535Z,16.27
2022-09-16T12:06:28.507Z,16.17
2022-09-16T12:07:28.460Z,16.25
2022-09-16T12:08:28.517Z,16.13
2022-09-16T12:09:28.386Z,16.07
2022-09-16T12:10:28.350Z,15.93
2022-09-16T12:11:28.328Z,15.86
2022-09-16T12:12:28.278Z,15.74
2022-09-16T12:13:28.243Z,15.41
2022-09-16T12:14:28.205Z,15.37
2022-09-16T12:15:28.236Z,15.25
2022-09-16T12:16:30.602Z,15.05
2022-09-16T12:17:28.105Z,14.91
2022-09-16T12:18:28.056Z,14.87
2022-09-16T12:19:28.020Z,14.97
2022-09-16T12:20:27.982Z,14.85
2022-09-16T12:21:27.943Z,14.97
2022-09-16T12:22:27.917Z,14.87
2022-09-16T12:23:27.870Z,14.91
2022-09-16T12:24:27.971Z,14.95
2022-09-16T12:25:27.794Z,14.97
2022-09-16T12:26:27.758Z,15.01
2022-09-16T12:27:27.717Z,15.19
2022-09-16T12:28:27.689Z,15.44
2022-09-16T12:29:27.658Z,15.62
2022-09-16T12:30:27.607Z,15.81
2022-09-16T12:31:27.642Z,16.06
2022-09-16T12:32:27.535Z,16.01
2022-09-16T12:33:27.494Z,15.99
2022-09-16T12:34:27.466Z,16.04
2022-09-16T12:35:27.456Z,16.16
2022-09-16T12:36:27.386Z,16.16
2022-09-16T12:37:27.351Z,16.14
2022-09-16T12:38:27.311Z,15.98
2022-09-16T12:39:27.293Z,15.98
2022-09-16T12:40:27.422Z,15.93
2022-09-16T12:41:27.237Z,15.98
2022-09-16T12:42:27.174Z,15.88
2022-09-16T12:43:27.137Z,15.93
2022-09-16T12:44:35.023Z,15.91
2022-09-16T12:45:27.065Z,15.91
2022-09-16T12:46:27.057Z,15.76
2022-09-16T12:47:27.011Z,15.84
2022-09-16T12:48:26.958Z,15.84
2022-09-16T12:49:26.924Z,15.74
2022-09-16T12:50:26.887Z,15.89
2022-09-16T12:51:26.853Z,15.98
2022-09-16T12:52:26.818Z,15.99
2022-09-16T12:53:26.802Z,16.03